x

Texas Tower #4 - 75 Nm East Of Long Beach, Nj (44066) Wave Buoy

10:50am - Sun 20th Apr 2014 All times are EDT. -4 hours from GMT.

  • Sig Wave height 6.9ft
  • Swell Direction
  • Peak Period 6s
  • Average Period 5s
  • Wind
    25mph, 27mph gusts
  • Sea Temp 44°f
  • Air Temp 45°f
  • Sea Pressure 1030.7mb
  • Texas Tower #4 - 75 Nm East Of Long Beach, Nj
  • Texas Tower #4 - 75 Nm East Of Long Beach, Nj

More Historic Weather Station data

Upgrade to MSW Pro to gain access to the past 30 days of data for over 8000 Wavebouys and Weather Stations around the globe.

Join Pro

Comparision Forecast

View Surf forecast
   
Sun 04/20 10:50am 7ft 6s 5s 25 27 mph 1030.7mb 44f 45f
9:50am 5.5ft 5s 5s 25 29 mph 1029.8mb 44f 45f
8:50am 5ft 5s 5s 22 27 mph 1030mb 44f 45f
7:50am 5.5ft 8s 5s 22 25 mph 1029.6mb 44f 45f
6:50am 5ft 9s 5s 22 27 mph 1028.8mb 44f 45f
5:50am 5ft 9s 5s 22 27 mph 1028.6mb 44f 45f
4:50am 4.5ft 8s 5s 25 27 mph 1028mb 44f 46f
3:50am 3.5ft 10s 6s 22 29 mph 1027.4mb 44f 46f
2:50am 3.5ft 10s 8s 13
mph
1027.2mb 44f 46f
1:50am 3.5ft 10s 8s 9 11 mph 1026.7mb 44f 46f
12:50am 3.5ft 10s 8s 7 9 mph 1026.7mb 44f 46f
Sat 04/19 11:50pm 4ft 9s 8s 7
mph
1026.4mb 44f 46f
10:50pm 4.5ft 10s 8s 4 7 mph 1025.8mb 45f 46f
9:50pm 4ft 10s 8s 2
mph
1025.9mb 45f 47f
8:50pm 3.5ft 11s 8s 4
mph
1025.3mb 45f 47f
7:50pm 4.5ft 10s 8s 4
mph
1024.6mb 46f 47f
6:50pm 4.5ft 10s 8s 4
mph
1024.5mb 46f 46f
5:50pm 4.5ft 10s 8s 4
mph
1024.6mb 46f 46f
4:50pm 4.5ft 10s 8s 4
mph
1024.4mb 46f 46f
3:50pm 5ft 10s 8s 2 4 mph 1024.2mb 45f 46f
2:50pm 5ft 10s 8s 7 9 mph 1024.2mb 45f 45f
1:50pm 4.5ft 11s 8s 9 11 mph 1024mb 45f 45f
12:50pm 5ft 11s 8s 9 11 mph 1024.2mb 44f 44f
11:50am 4.5ft 11s 8s 9 11 mph 1024.8mb 44f 44f
10:50am 4.5ft 10s 8s 9 11 mph 1025.3mb 44f 44f
9:50am 4.5ft 10s 8s 7 9 mph 1025.1mb 44f 44f
8:50am 4.5ft 11s 7s 9 11 mph 1024.8mb 44f 44f
7:50am 6ft 10s 8s 9 11 mph 1024.3mb 44f 43f
6:50am 5.5ft 11s 8s 11 13 mph 1024mb 44f 42f
5:50am 5ft 11s 8s 7 9 mph 1024.2mb 44f 42f
4:50am 6ft 11s 8s 7 11 mph 1024.7mb 44f 42f
3:50am 7ft 11s 8s 7 9 mph 1024mb 44f 41f
2:50am 7ft 11s 8s 4 11 mph 1024.5mb 44f 41f
1:50am 6.5ft 10s 8s 2 4 mph 1025.1mb 44f 41f
12:50am 7.5ft 10s 8s 2 4 mph 1025.2mb 44f 41f
Fri 04/18 11:50pm 7.5ft 11s 8s 4 7 mph 1025mb 44f 41f
10:50pm 7ft 10s 8s 4 7 mph 1025.8mb 44f 41f
9:50pm 6.5ft 11s 7s 7 9 mph 1025.8mb 44f 41f
8:50pm 7ft 10s 7s 7
mph
1026.8mb 44f 41f
7:50pm 7.5ft 11s 7s 9 13 mph 1026.4mb 44f 41f
6:50pm 8ft 11s 8s 9 13 mph 1026.7mb 44f 41f
5:50pm 8ft 11s 7s 11 13 mph 1027.1mb 44f 41f
4:50pm 8ft 11s 7s 11 13 mph 1028.1mb 45f 41f
3:50pm 7.5ft 11s 7s 16 18 mph 1028.3mb 45f 41f
2:50pm 8ft 11s 7s 13 18 mph 1029.6mb 45f 41f
1:50pm 8ft 11s 7s 13 16 mph 1030.4mb 45f 41f
12:50pm 7.5ft 10s 7s 13 16 mph 1030.6mb 45f 41f
11:50am 7.5ft 9s 7s 16 18 mph 1031mb 44f 40f
10:50am 7.5ft 10s 7s 16 18 mph 1031.6mb 44f 40f
9:50am 8ft 9s 7s 13 16 mph 1032.3mb 44f 40f
8:50am 8ft 9s 7s 13 16 mph 1032.9mb 44f 40f
7:50am 8ft 9s 6s 16 20 mph 1031.9mb 44f 40f
6:50am 8ft 8s 6s 20 25 mph 1030.7mb 44f 40f
5:50am 9ft 9s 7s 20 22 mph 1030.8mb 44f 40f
4:50am 9.5ft 8s 6s 20 25 mph 1030.9mb 44f 40f
3:50am 9ft 9s 6s 18 22 mph 1032.2mb 44f 40f
2:50am 9.5ft 8s 6s 18 20 mph 1033.5mb 44f 40f
1:50am 10ft 8s 6s 18 20 mph 1033.5mb 44f 40f
12:50am 10ft 8s 6s 22 25 mph 1033.3mb 44f 40f
Thu 04/17 11:50pm 10.5ft 9s 6s 25 29 mph 1033.5mb 44f 40f
10:50pm 9.5ft 8s 6s 27 31 mph 1033.9mb 44f 40f
9:50pm 9ft 8s 6s 25 29 mph 1034.8mb 45f 40f
8:50pm 9ft 8s 6s 25 29 mph 1035.7mb 45f 40f
7:50pm 9ft 8s 6s 25 29 mph 1035.9mb 45f 40f
6:50pm 9ft 8s 6s 25 31 mph 1035.7mb 45f 40f
5:50pm 9ft 9s 6s 27 31 mph 1036.2mb 45f 40f
4:50pm 9ft 7s 6s 25 31 mph 1036.4mb 45f 40f
3:50pm 9ft 8s 6s 25 31 mph 1036.8mb 45f 40f
2:50pm 9.5ft 8s 6s 25 29 mph 1037.4mb 45f 40f
1:50pm 9ft 8s 6s 25 29 mph 1037.8mb 45f 40f
12:50pm 9ft 8s 6s 25 29 mph 1038mb 45f 40f
11:50am 9.5ft 8s 6s 25 29 mph 1038.3mb 45f 41f
10:50am 10ft 7s 6s 25 29 mph 1038.1mb 45f 41f
9:50am 9ft 8s 6s 25 31 mph 1037.6mb 45f 41f
8:50am 9ft 7s 6s 25 31 mph 1037mb 45f 41f
7:50am 8.5ft 7s 6s 27 34 mph 1036.5mb 44f 40f
6:50am 8.5ft 9s 6s 27 31 mph 1035.9mb 44f 40f
5:50am 7.5ft 9s 6s 27 31 mph 1035.1mb 44f 40f
4:50am 6.5ft 10s 5s 25 29 mph 1034.4mb 44f 40f
3:50am 5.5ft 10s 5s 25 27 mph 1034.4mb 44f 41f
2:50am 5ft 10s 5s 20 25 mph 1034.4mb 44f 41f
1:50am 4.5ft 10s 6s 18 22 mph 1034.4mb 44f 41f
12:50am 4.5ft 10s 6s 16 18 mph 1034.1mb 44f 41f
Wed 04/16 11:50pm 4.5ft 11s 6s 13 18 mph 1033.7mb 45f 42f
10:50pm 5ft 10s 6s 11 13 mph 1033.3mb 45f 42f
9:50pm 5ft 11s 6s 13 16 mph 1032.6mb 45f 42f
8:50pm 5ft 11s 5s 16 18 mph 1031.9mb 45f 42f
7:50pm 5ft 11s 6s 18 20 mph 1030.8mb 44f 42f
6:50pm 6ft 11s 6s 18 22 mph 1030.1mb 45f 41f
5:50pm 6.5ft 6s 6s 18 22 mph 1029.7mb 45f 40f
4:50pm 7ft 6s 6s 20 25 mph 1029mb 45f 40f